createdAt,value
2017-11-21T00:01:16.280Z,85.96
2017-11-21T00:03:42.015Z,86.33
2017-11-21T00:06:08.529Z,85.91
2017-11-21T00:08:34.284Z,86.50
2017-11-21T00:11:00.079Z,86.53
2017-11-21T00:13:29.347Z,86.07
2017-11-21T00:15:55.106Z,86.22
2017-11-21T00:18:24.300Z,86.34
2017-11-21T00:20:50.076Z,86.74
2017-11-21T00:23:17.571Z,86.60
2017-11-21T00:25:43.323Z,86.25
2017-11-21T00:28:12.347Z,86.54
2017-11-21T00:30:38.100Z,86.62
2017-11-21T00:33:06.809Z,86.42
2017-11-21T00:35:32.573Z,86.78
2017-11-21T00:40:29.055Z,86.62
2017-11-21T00:42:58.231Z,86.56
2017-11-21T00:45:24.015Z,86.63
2017-11-21T00:47:49.796Z,86.55
2017-11-21T00:50:15.588Z,86.85
2017-11-21T00:52:41.344Z,87.22
2017-11-21T00:55:08.571Z,87.46
2017-11-21T00:57:34.349Z,87.55
2017-11-21T01:00:04.055Z,88.05
2017-11-21T01:02:29.816Z,87.79
2017-11-21T01:04:57.476Z,87.82
2017-11-21T01:07:23.252Z,87.76
2017-11-21T01:09:51.879Z,88.04
2017-11-21T01:12:17.627Z,88.55
2017-11-21T01:14:43.385Z,88.50
2017-11-21T01:17:12.416Z,88.64
2017-11-21T01:19:41.436Z,88.22
2017-11-21T01:22:07.227Z,87.97
2017-11-21T01:24:32.980Z,87.48
2017-11-21T01:26:58.728Z,87.84
2017-11-21T01:29:24.507Z,87.34
2017-11-21T01:31:53.761Z,87.01
2017-11-21T01:34:19.522Z,86.84
2017-11-21T01:36:48.717Z,86.86
2017-11-21T01:39:14.472Z,86.47
2017-11-21T01:41:44.136Z,86.28
2017-11-21T01:44:09.913Z,86.18
2017-11-21T01:46:38.505Z,86.07
2017-11-21T01:49:04.288Z,85.96
2017-11-21T01:51:33.887Z,85.71
2017-11-21T01:53:59.662Z,85.50
2017-11-21T01:56:27.100Z,85.59
2017-11-21T01:58:52.844Z,85.38
2017-11-21T02:01:18.619Z,84.83
2017-11-21T02:03:44.364Z,85.21
2017-11-21T02:06:10.129Z,84.81
2017-11-21T02:08:39.930Z,85.02
2017-11-21T02:11:05.688Z,85.08
2017-11-21T02:13:34.955Z,85.03
2017-11-21T02:16:00.714Z,84.80
2017-11-21T02:18:28.104Z,85.07
2017-11-21T02:20:53.872Z,84.90
2017-11-21T02:23:23.004Z,85.06
2017-11-21T02:25:48.821Z,84.88
2017-11-21T02:28:18.026Z,85.14
2017-11-21T02:30:43.808Z,85.36
2017-11-21T02:33:13.139Z,85.60
2017-11-21T02:35:38.920Z,85.39
2017-11-21T02:38:04.711Z,85.42
2017-11-21T02:40:30.547Z,85.35
2017-11-21T02:42:56.331Z,85.15
2017-11-21T02:45:23.917Z,85.24
2017-11-21T02:47:49.679Z,85.35
2017-11-21T02:52:46.284Z,85.20
2017-11-21T02:55:15.210Z,85.11
2017-11-21T02:57:41.005Z,85.29
2017-11-21T03:00:08.588Z,85.42
2017-11-21T03:02:34.348Z,85.28
2017-11-21T03:05:02.835Z,85.21
2017-11-21T03:07:28.616Z,85.54
2017-11-21T03:12:25.076Z,85.88
2017-11-21T03:14:50.840Z,86.08
2017-11-21T03:17:16.603Z,86.70
2017-11-21T03:19:42.352Z,87.11
2017-11-21T03:22:22.525Z,87.53
2017-11-21T03:25:00.591Z,87.64
2017-11-21T03:27:32.400Z,87.94
2017-11-21T03:29:59.001Z,88.23
2017-11-21T03:32:24.780Z,88.15
2017-11-21T03:34:50.531Z,88.22
2017-11-21T03:37:16.339Z,88.59
2017-11-21T03:39:42.104Z,88.85
2017-11-21T03:42:07.862Z,88.37
2017-11-21T03:44:33.620Z,87.76
2017-11-21T03:46:59.379Z,87.72
2017-11-21T03:49:25.141Z,87.14
2017-11-21T03:51:50.921Z,87.05
2017-11-21T03:54:16.667Z,86.63
2017-11-21T03:56:42.428Z,86.80
2017-11-21T03:59:08.197Z,86.83
2017-11-21T04:01:33.965Z,86.92
2017-11-21T04:03:59.724Z,86.58
2017-11-21T04:06:25.492Z,86.49
2017-11-21T04:08:51.256Z,86.55
2017-11-21T04:11:17.021Z,86.77
2017-11-21T04:13:42.826Z,86.41
2017-11-21T04:16:08.571Z,86.35
2017-11-21T04:18:34.320Z,86.05
2017-11-21T04:21:00.111Z,86.23
2017-11-21T04:23:29.145Z,86.29
2017-11-21T04:25:54.895Z,86.32
2017-11-21T04:28:20.686Z,86.18
2017-11-21T04:30:46.453Z,86.49
2017-11-21T04:33:12.252Z,86.70
2017-11-21T04:35:40.772Z,86.82
2017-11-21T04:38:06.515Z,86.75
2017-11-21T04:40:34.707Z,86.62
2017-11-21T04:43:00.448Z,87.02
2017-11-21T04:45:30.131Z,87.12
2017-11-21T04:47:55.895Z,87.17
2017-11-21T04:50:24.809Z,87.35
2017-11-21T04:52:51.354Z,87.38
2017-11-21T04:55:19.067Z,87.32
2017-11-21T04:57:44.823Z,87.64
2017-11-21T05:00:14.409Z,87.59
2017-11-21T05:02:40.165Z,87.88
2017-11-21T05:05:05.921Z,87.67
2017-11-21T05:07:31.701Z,87.87
2017-11-21T05:09:57.460Z,88.18
2017-11-21T05:12:26.578Z,88.26
2017-11-21T05:14:52.349Z,88.25
2017-11-21T05:17:20.784Z,88.05
2017-11-21T05:19:46.552Z,88.16
2017-11-21T05:22:14.652Z,88.44
2017-11-21T05:24:40.430Z,88.76
2017-11-21T05:29:37.049Z,88.84
2017-11-21T05:32:04.373Z,89.12
2017-11-21T05:34:30.123Z,89.08
2017-11-21T05:36:59.212Z,89.27
2017-11-21T05:39:24.988Z,89.20
2017-11-21T05:41:50.752Z,89.14
2017-11-21T05:44:16.549Z,88.94
2017-11-21T05:46:42.349Z,88.81
2017-11-21T05:49:12.085Z,88.80
2017-11-21T05:51:37.873Z,88.64
2017-11-21T05:54:05.625Z,88.41
2017-11-21T05:56:31.404Z,88.48
2017-11-21T05:59:00.885Z,88.29
2017-11-21T06:01:26.747Z,88.25
2017-11-21T06:03:56.022Z,88.11
2017-11-21T06:06:21.767Z,88.05
2017-11-21T06:08:49.308Z,88.01
2017-11-21T06:11:15.081Z,87.97
2017-11-21T06:16:11.659Z,88.05
2017-11-21T06:18:37.440Z,87.99
2017-11-21T06:21:03.192Z,88.14
2017-11-21T06:23:28.988Z,88.05
2017-11-21T06:25:56.075Z,87.87
2017-11-21T06:28:21.808Z,87.78
2017-11-21T06:30:50.510Z,87.70
2017-11-21T06:33:16.287Z,87.70
2017-11-21T06:35:44.989Z,87.58
2017-11-21T06:38:10.780Z,87.29
2017-11-21T06:40:39.902Z,87.13
2017-11-21T06:43:05.702Z,86.95
2017-11-21T06:45:34.404Z,86.54
2017-11-21T06:48:00.152Z,86.68
2017-11-21T06:50:25.924Z,86.56
2017-11-21T06:52:55.112Z,86.47
2017-11-21T06:55:20.855Z,86.26
2017-11-21T06:57:46.629Z,86.13
2017-11-21T07:00:12.404Z,86.30
2017-11-21T07:02:42.924Z,86.12
2017-11-21T07:05:08.696Z,85.98
2017-11-21T07:07:36.092Z,85.92
2017-11-21T07:10:01.856Z,86.14
2017-11-21T07:12:30.452Z,86.14
2017-11-21T07:14:56.215Z,86.27
2017-11-21T07:19:52.728Z,86.55
2017-11-21T07:22:20.248Z,87.15
2017-11-21T07:24:45.996Z,88.10
2017-11-21T07:27:15.216Z,88.98
2017-11-21T07:29:40.976Z,89.95
2017-11-21T07:32:06.732Z,90.20
2017-11-21T07:34:32.536Z,90.36
2017-11-21T07:36:58.305Z,90.66
2017-11-21T07:39:27.172Z,90.81
2017-11-21T07:41:52.945Z,90.64
2017-11-21T07:44:22.524Z,90.80
2017-11-21T07:46:48.279Z,90.55
2017-11-21T07:49:17.152Z,90.75
2017-11-21T07:51:42.921Z,91.11
2017-11-21T07:54:11.197Z,90.99
2017-11-21T07:56:36.943Z,91.05
2017-11-21T07:59:05.896Z,90.92
2017-11-21T08:01:31.701Z,90.74
2017-11-21T08:04:01.536Z,90.97
2017-11-21T08:06:27.304Z,91.24
2017-11-21T08:08:53.081Z,91.24
2017-11-21T08:11:18.840Z,91.45
2017-11-21T08:13:44.608Z,91.31
2017-11-21T08:16:13.612Z,91.28
2017-11-21T08:18:39.400Z,90.94
2017-11-21T08:21:06.704Z,90.68
2017-11-21T08:23:32.477Z,91.06
2017-11-21T08:26:01.647Z,90.98
2017-11-21T08:28:27.446Z,90.92
2017-11-21T08:30:56.792Z,90.79
2017-11-21T08:33:22.537Z,91.07
2017-11-21T08:35:52.014Z,91.46
2017-11-21T08:38:17.788Z,91.53
2017-11-21T08:40:45.855Z,92.06
2017-11-21T08:43:11.624Z,92.46
2017-11-21T08:45:37.368Z,92.05
2017-11-21T08:48:03.184Z,91.84
2017-11-21T08:50:28.965Z,92.36
2017-11-21T08:52:57.922Z,92.36
2017-11-21T08:55:23.700Z,92.61
2017-11-21T08:57:51.796Z,92.48
2017-11-21T09:00:17.569Z,92.55
2017-11-21T09:05:14.146Z,92.43
2017-11-21T09:07:41.724Z,92.52
2017-11-21T09:10:07.481Z,92.76
2017-11-21T09:12:36.048Z,92.81
2017-11-21T09:15:01.833Z,93.29
2017-11-21T09:17:30.641Z,93.11
2017-11-21T09:19:56.394Z,93.53
2017-11-21T09:22:22.187Z,93.93
2017-11-21T09:24:47.952Z,94.13
2017-11-21T09:27:13.704Z,94.15
2017-11-21T09:29:43.271Z,94.08
2017-11-21T09:32:09.036Z,94.30
2017-11-21T09:34:37.085Z,94.19
2017-11-21T09:37:02.853Z,93.98
2017-11-21T09:39:31.515Z,93.89
2017-11-21T09:41:57.252Z,93.89
2017-11-21T09:44:24.024Z,93.83
2017-11-21T09:46:49.770Z,93.34
2017-11-21T09:49:15.516Z,93.23
2017-11-21T09:51:44.431Z,92.43
2017-11-21T09:54:10.201Z,92.01
2017-11-21T09:56:39.937Z,91.75
2017-11-21T09:59:05.682Z,92.10
2017-11-21T10:01:33.011Z,91.54
2017-11-21T10:03:58.780Z,91.59
2017-11-21T10:06:25.232Z,91.51
2017-11-21T10:08:50.989Z,91.30
2017-11-21T10:11:16.796Z,90.77
2017-11-21T10:13:45.907Z,90.60
2017-11-21T10:16:11.665Z,90.53
2017-11-21T10:18:39.305Z,90.26
2017-11-21T10:21:05.078Z,89.85
2017-11-21T10:26:01.642Z,89.93
2017-11-21T10:28:29.199Z,89.72
2017-11-21T10:30:54.976Z,90.10
2017-11-21T10:33:23.532Z,89.85
2017-11-21T10:35:49.304Z,89.97
2017-11-21T10:40:45.939Z,89.76
2017-11-21T10:43:13.355Z,89.29
2017-11-21T10:45:39.138Z,88.98
2017-11-21T10:48:09.336Z,88.03
2017-11-21T10:50:35.092Z,89.06
2017-11-21T10:53:03.984Z,88.84
2017-11-21T10:55:29.755Z,88.81
2017-11-21T10:57:58.733Z,88.91
2017-11-21T11:00:24.487Z,88.54
2017-11-21T11:02:53.504Z,88.12
2017-11-21T11:05:19.317Z,87.47
2017-11-21T11:07:48.128Z,87.29
2017-11-21T11:10:13.903Z,87.04
2017-11-21T11:12:39.736Z,86.26
2017-11-21T11:15:05.495Z,85.30
2017-11-21T11:17:31.298Z,84.59
2017-11-21T11:19:58.918Z,86.12
2017-11-21T11:22:24.688Z,86.36
2017-11-21T11:24:53.892Z,85.78
2017-11-21T11:27:19.681Z,86.05
2017-11-21T11:29:48.583Z,86.08
2017-11-21T11:32:14.350Z,86.00
2017-11-21T11:34:43.912Z,85.16
2017-11-21T11:37:09.695Z,85.33
2017-11-21T11:39:37.372Z,82.28
2017-11-21T11:42:03.185Z,82.82
2017-11-21T11:44:32.290Z,84.20
2017-11-21T11:46:58.062Z,84.09
2017-11-21T11:49:23.811Z,81.58
2017-11-21T11:51:49.604Z,80.38
2017-11-21T11:54:15.378Z,79.11
2017-11-21T11:56:43.853Z,75.90
2017-11-21T11:59:09.661Z,72.13
2017-11-21T12:01:38.313Z,70.48
2017-11-21T12:04:04.120Z,67.90
2017-11-21T12:09:00.708Z,68.31
2017-11-21T12:11:29.682Z,65.74
2017-11-21T12:13:55.483Z,63.14
2017-11-21T12:16:23.205Z,63.07
2017-11-21T12:18:49.028Z,65.06
2017-11-21T12:21:17.220Z,63.24
2017-11-21T12:23:42.997Z,62.41
2017-11-21T12:26:08.782Z,64.20
2017-11-21T12:28:34.625Z,66.25
2017-11-21T12:31:00.409Z,66.29
2017-11-21T12:33:29.417Z,68.06
2017-11-21T12:35:55.216Z,68.67
2017-11-21T12:38:24.501Z,67.38
2017-11-21T12:40:50.361Z,68.66
2017-11-21T12:43:19.200Z,68.48
2017-11-21T12:45:45.020Z,69.33
2017-11-21T12:48:14.673Z,70.14
2017-11-21T12:50:40.516Z,72.11
2017-11-21T12:53:09.572Z,73.01
2017-11-21T12:55:35.345Z,72.02
2017-11-21T12:58:02.996Z,70.41
2017-11-21T13:00:28.777Z,70.35
2017-11-21T13:02:54.539Z,69.86
2017-11-21T13:05:20.340Z,68.52
2017-11-21T13:07:46.151Z,70.36
2017-11-21T13:10:15.743Z,69.90
2017-11-21T13:12:41.580Z,71.64
2017-11-21T13:15:08.996Z,71.05
2017-11-21T13:17:34.809Z,73.20
2017-11-21T13:20:04.066Z,72.05
2017-11-21T13:22:29.908Z,72.00
2017-11-21T13:24:59.043Z,69.80
2017-11-21T13:27:25.932Z,72.07
2017-11-21T13:29:54.862Z,71.72
2017-11-21T13:32:20.672Z,71.17
2017-11-21T13:34:47.902Z,70.90
2017-11-21T13:37:13.712Z,69.61
2017-11-21T13:39:39.562Z,70.16
2017-11-21T13:42:05.326Z,68.20
2017-11-21T13:44:31.208Z,65.78
2017-11-21T13:47:00.226Z,69.78
2017-11-21T13:49:26.044Z,69.35
2017-11-21T13:51:55.839Z,69.72
2017-11-21T13:54:21.681Z,69.16
2017-11-21T13:56:50.597Z,67.86
2017-11-21T13:59:16.373Z,66.59
2017-11-21T14:01:45.209Z,64.17
2017-11-21T14:04:10.996Z,67.10
2017-11-21T14:06:40.049Z,69.31
2017-11-21T14:09:05.924Z,70.09
2017-11-21T14:11:33.392Z,70.09
2017-11-21T14:13:59.181Z,75.07
2017-11-21T14:16:24.969Z,74.31
2017-11-21T14:18:50.776Z,73.02
2017-11-21T14:21:16.573Z,76.20
2017-11-21T14:23:45.665Z,78.15
2017-11-21T14:26:11.443Z,79.00
2017-11-21T14:28:40.952Z,80.21
2017-11-21T14:31:06.732Z,80.36
2017-11-21T14:33:35.437Z,74.25
2017-11-21T14:36:01.249Z,74.05
2017-11-21T14:38:28.953Z,75.92
2017-11-21T14:40:54.776Z,76.98
2017-11-21T14:45:51.452Z,74.23
2017-11-21T14:48:19.129Z,75.86
2017-11-21T14:50:44.920Z,73.24
2017-11-21T14:53:10.693Z,70.83
2017-11-21T14:55:36.490Z,70.92
2017-11-21T14:58:02.277Z,70.60
2017-11-21T15:00:31.208Z,71.01
2017-11-21T15:02:57.000Z,70.71
2017-11-21T15:05:26.160Z,69.82
2017-11-21T15:07:51.953Z,69.61
2017-11-21T15:10:19.584Z,69.58
2017-11-21T15:12:45.373Z,68.30
2017-11-21T15:17:41.889Z,67.75
2017-11-21T15:20:10.963Z,67.72
2017-11-21T15:22:36.790Z,68.94
2017-11-21T15:25:05.739Z,69.62
2017-11-21T15:27:31.506Z,69.71
2017-11-21T15:29:57.300Z,70.05
2017-11-21T15:32:23.069Z,70.93
2017-11-21T15:34:48.852Z,70.55
2017-11-21T15:37:15.988Z,70.52
2017-11-21T15:39:41.778Z,71.41
2017-11-21T15:42:11.085Z,71.14
2017-11-21T15:44:36.836Z,72.00
2017-11-21T15:47:05.767Z,72.96
2017-11-21T15:49:31.539Z,73.69
2017-11-21T15:52:00.526Z,74.00
2017-11-21T15:54:26.296Z,74.92
2017-11-21T15:56:54.360Z,75.13
2017-11-21T15:59:20.131Z,74.88
2017-11-21T16:01:46.643Z,73.79
2017-11-21T16:04:13.945Z,73.97
2017-11-21T16:06:39.717Z,74.55
2017-11-21T16:09:06.560Z,75.00
2017-11-21T16:11:32.332Z,74.87
2017-11-21T16:14:01.699Z,75.24
2017-11-21T16:16:27.474Z,75.65
2017-11-21T16:18:57.132Z,77.17
2017-11-21T16:21:22.917Z,76.62
2017-11-21T16:23:50.617Z,76.44
2017-11-21T16:26:16.375Z,76.10
2017-11-21T16:28:44.940Z,75.95
2017-11-21T16:31:10.740Z,76.52
2017-11-21T16:36:07.212Z,76.17
2017-11-21T16:38:34.554Z,76.38
2017-11-21T16:41:00.311Z,76.49
2017-11-21T16:43:26.107Z,75.92
2017-11-21T16:45:51.888Z,76.37
2017-11-21T16:48:17.635Z,76.80
2017-11-21T16:50:47.217Z,77.11
2017-11-21T16:53:12.993Z,76.36
2017-11-21T16:55:42.128Z,75.82
2017-11-21T16:58:07.896Z,76.33
2017-11-21T17:00:36.493Z,77.01
2017-11-21T17:03:02.277Z,77.20
2017-11-21T17:05:31.128Z,77.29
2017-11-21T17:07:56.896Z,77.59
2017-11-21T17:10:24.988Z,78.15
2017-11-21T17:12:50.771Z,79.32
2017-11-21T17:15:20.405Z,79.44
2017-11-21T17:17:46.159Z,79.51
2017-11-21T17:20:11.923Z,79.67
2017-11-21T17:22:37.688Z,80.17
2017-11-21T17:25:03.472Z,80.90
2017-11-21T17:27:31.680Z,82.15
2017-11-21T17:29:57.437Z,82.82
2017-11-21T17:32:26.019Z,83.90
2017-11-21T17:34:51.788Z,84.74
2017-11-21T17:39:48.440Z,84.68
2017-11-21T17:42:15.930Z,84.79
2017-11-21T17:44:41.723Z,84.28
2017-11-21T17:47:11.256Z,84.96
2017-11-21T17:49:37.033Z,84.60
2017-11-21T17:52:06.739Z,84.85
2017-11-21T17:54:32.515Z,85.06
2017-11-21T17:56:58.267Z,84.62
2017-11-21T17:59:24.045Z,84.78
2017-11-21T18:01:49.796Z,84.33
2017-11-21T18:04:16.935Z,85.37
2017-11-21T18:06:42.701Z,85.30
2017-11-21T18:09:12.305Z,85.38
2017-11-21T18:11:38.054Z,85.54
2017-11-21T18:14:06.228Z,85.64
2017-11-21T18:16:31.992Z,84.99
2017-11-21T18:19:00.851Z,85.07
2017-11-21T18:21:26.645Z,84.86
2017-11-21T18:23:53.099Z,85.10
2017-11-21T18:26:18.861Z,84.87
2017-11-21T18:28:44.620Z,83.88
2017-11-21T18:31:13.627Z,84.65
2017-11-21T18:33:39.404Z,85.52
2017-11-21T18:36:08.860Z,86.34
2017-11-21T18:38:34.656Z,85.61
2017-11-21T18:41:02.258Z,85.43
2017-11-21T18:43:28.007Z,85.31
2017-11-21T18:45:56.581Z,85.60
2017-11-21T18:48:22.349Z,85.69
2017-11-21T18:53:19.013Z,85.99
2017-11-21T18:55:47.832Z,85.90
2017-11-21T18:58:13.589Z,86.15
2017-11-21T19:00:41.066Z,86.52
2017-11-21T19:03:06.849Z,86.37
2017-11-21T19:05:36.640Z,86.26
2017-11-21T19:08:02.411Z,85.97
2017-11-21T19:10:28.188Z,85.82
2017-11-21T19:12:53.955Z,85.81
2017-11-21T19:15:19.744Z,85.69
2017-11-21T19:17:49.084Z,85.81
2017-11-21T19:20:14.856Z,85.78
2017-11-21T19:22:42.000Z,85.99
2017-11-21T19:25:07.777Z,85.80
2017-11-21T19:30:04.224Z,85.19
2017-11-21T19:32:31.806Z,85.02
2017-11-21T19:34:57.589Z,85.05
2017-11-21T19:37:28.464Z,85.17
2017-11-21T19:39:54.229Z,84.70
2017-11-21T19:42:21.253Z,84.51
2017-11-21T19:44:47.003Z,85.77
2017-11-21T19:47:12.793Z,86.59
2017-11-21T19:49:38.549Z,85.94
2017-11-21T19:52:04.312Z,85.63
2017-11-21T19:54:34.084Z,85.62
2017-11-21T19:56:59.849Z,85.65
2017-11-21T19:59:28.681Z,85.67
2017-11-21T20:01:54.452Z,86.25
2017-11-21T20:04:22.411Z,86.39
2017-11-21T20:06:48.195Z,85.98
2017-11-21T20:09:17.120Z,86.00
2017-11-21T20:11:42.867Z,85.60
2017-11-21T20:14:12.296Z,85.68
2017-11-21T20:16:38.035Z,85.94
2017-11-21T20:19:07.198Z,86.37
2017-11-21T20:21:32.986Z,86.53
2017-11-21T20:23:58.742Z,86.34
2017-11-21T20:26:24.644Z,86.36
2017-11-21T20:28:50.447Z,85.90
2017-11-21T20:31:18.156Z,85.70
2017-11-21T20:33:43.945Z,85.62
2017-11-21T20:36:13.612Z,85.43
2017-11-21T20:38:39.428Z,84.99
2017-11-21T20:41:07.364Z,86.05
2017-11-21T20:43:33.114Z,85.12
2017-11-21T20:48:29.696Z,84.70
2017-11-21T20:50:56.960Z,85.22
2017-11-21T20:53:22.704Z,86.36
2017-11-21T20:55:51.692Z,86.08
2017-11-21T20:58:17.497Z,85.67
2017-11-21T21:00:43.313Z,86.77
2017-11-21T21:03:09.096Z,86.77
2017-11-21T21:05:34.853Z,87.05
2017-11-21T21:08:03.900Z,87.51
2017-11-21T21:10:29.668Z,88.06
2017-11-21T21:12:59.405Z,89.01
2017-11-21T21:15:25.180Z,89.14
2017-11-21T21:17:52.655Z,88.72
2017-11-21T21:20:18.412Z,87.47
2017-11-21T21:25:15.138Z,87.36
2017-11-21T21:27:42.549Z,87.42
2017-11-21T21:30:08.325Z,86.33
2017-11-21T21:32:37.708Z,86.45
2017-11-21T21:35:03.475Z,85.52
2017-11-21T21:37:29.225Z,85.49
2017-11-21T21:39:54.971Z,85.31
2017-11-21T21:42:20.741Z,85.27
2017-11-21T21:44:48.523Z,84.78
2017-11-21T21:47:14.254Z,85.22
2017-11-21T21:52:10.913Z,85.92
2017-11-21T21:54:38.227Z,85.37
2017-11-21T21:57:03.975Z,85.08
2017-11-21T21:59:32.670Z,85.19
2017-11-21T22:01:58.444Z,85.25
2017-11-21T22:06:54.965Z,85.11
2017-11-21T22:09:22.773Z,85.03
2017-11-21T22:11:48.583Z,85.30
2017-11-21T22:14:14.357Z,85.74
2017-11-21T22:16:40.139Z,85.46
2017-11-21T22:19:05.941Z,85.39
2017-11-21T22:21:35.138Z,85.00
2017-11-21T22:24:00.916Z,84.88
2017-11-21T22:26:28.611Z,85.09
2017-11-21T22:28:54.408Z,84.99
2017-11-21T22:33:50.918Z,85.66
2017-11-21T22:36:18.507Z,85.80
2017-11-21T22:38:44.273Z,85.77
2017-11-21T22:41:14.036Z,85.30
2017-11-21T22:43:39.814Z,85.10
2017-11-21T22:46:07.608Z,85.66
2017-11-21T22:48:33.376Z,84.70
2017-11-21T22:50:59.149Z,85.11
2017-11-21T22:53:24.932Z,85.32
2017-11-21T22:55:50.768Z,85.59
2017-11-21T22:58:20.017Z,85.42
2017-11-21T23:00:45.796Z,85.44
2017-11-21T23:03:15.252Z,85.70
2017-11-21T23:05:41.020Z,85.96
2017-11-21T23:08:08.564Z,86.03
2017-11-21T23:10:34.352Z,85.22
2017-11-21T23:13:03.073Z,86.28
2017-11-21T23:15:28.872Z,86.12
2017-11-21T23:17:55.500Z,86.31
2017-11-21T23:20:21.276Z,86.22
2017-11-21T23:22:47.073Z,86.36
2017-11-21T23:25:15.991Z,86.13
2017-11-21T23:27:41.804Z,87.09
2017-11-21T23:30:10.656Z,86.54
2017-11-21T23:32:36.444Z,86.32
2017-11-21T23:35:05.288Z,86.75
2017-11-21T23:37:31.072Z,86.15
2017-11-21T23:39:59.855Z,87.11
2017-11-21T23:42:25.631Z,87.03
2017-11-21T23:44:54.444Z,86.79
2017-11-21T23:47:20.205Z,85.77
2017-11-21T23:49:48.732Z,85.88
2017-11-21T23:52:14.536Z,86.01
2017-11-21T23:54:43.275Z,85.80
2017-11-21T23:57:09.053Z,86.26
2017-11-21T23:59:35.603Z,87.20
